Main page
METAR-TAF:

METAR-TAF

Airports :

Fukuoka Airport

Fukuoka, Japan

latitude: 33-35N, longitude: 130-27E, elevation: 9 m

Current weather observation

The report was made 27 minutes ago, at 20:30 UTC
Wind 1 kt from the Southeast
Temperature 13°C
Humidity 88%
Pressure 1022 hPa
Visibility 10 km or more

METAR: RJFF 192030Z AUTO 14001KT 9999 NCD 13/11 Q1022 NOSIG RMK A3021

Time: 05:57 (20:57 UTC)

Forecast

The report was made 3 hours and 51 minutes ago, at 17:06 UTC
Forecast valid from 19 at 18 UTC to 21 at 00 UTC
Wind 4 kt from the Southeast
Visibility 10 km or more
Few clouds at a height of 3000 ft
Scattered clouds at a height of 4000 ft
Becoming
from 19 at 22 UTC to 20 at 00 UTC
Wind 11 kt from the North
Becoming
from 20 at 15 UTC to 20 at 18 UTC
Wind 4 kt from the Southeast

TAF: RJFF 191706Z 1918/2100 14004KT 9999 FEW030 SCT040 BECMG 1922/2000 36011KT BECMG 2015/2018 14004KT

Weather observations and forecasts of more than 4000 airports (METAR and TAF reports).

The available stations are represented by yellow and red dots on the map.

Hover mouse over dot to see the name of the station.

Then click to see weather observations and forecasts.

To change the map : click on the green buttons with a black cross to zoom in, on the green button with a dash to zoom out, or on the green arrows for adjacent maps.


METAR-TAF: